Time;durP1;ratioP1;P1;durP2;ratioP2;P2;SDS_P1;SDS_P2;PMS_P1;PMS_P2;Temp;Humidity;BMP_temperature;BMP_pressure;BME280_temperature;BME280_humidity;BME280_pressure;Samples;Min_cycle;Max_cycle;Signal;HPM_P1;HPM_P2
2022/03/08 00:01:07;;;;;;;;;;;21.00;26.10;;;;;;468817;254;2430;-39
2022/03/08 00:03:08;;;;;;;;;;;21.00;26.20;;;;;;469212;254;2153;-39
2022/03/08 00:05:09;;;;;;;;;;;21.00;26.20;;;;;;468842;254;1321;-39
2022/03/08 00:07:11;;;;;;;;;;;21.00;26.10;;;;;;468807;250;1159;-39
2022/03/08 00:09:12;;;;;;;;;;;21.00;26.20;;;;;;468843;254;1113;-39
2022/03/08 00:11:16;;;;;;;;;;;20.90;26.10;;;;;;469166;254;965;-39
2022/03/08 00:13:15;;;;;;;;;;;20.90;26.20;;;;;;469151;253;2358;-39
2022/03/08 00:15:16;;;;;;;;;;;20.90;26.20;;;;;;468930;254;952;-39
2022/03/08 00:17:17;;;;;;;;;;;21.00;26.10;;;;;;469058;254;1086;-39
2022/03/08 00:19:18;;;;;;;;;;;21.00;26.10;;;;;;468808;254;1043;-39
2022/03/08 00:21:20;;;;;;;;;;;21.00;26.10;;;;;;468945;254;1560;-39
2022/03/08 00:23:21;;;;;;;;;;;20.90;26.10;;;;;;469218;254;2204;-39
2022/03/08 00:25:22;;;;;;;;;;;20.90;26.10;;;;;;468837;254;1117;-39
2022/03/08 00:27:24;;;;;;;;;;;20.90;26.20;;;;;;468907;254;1101;-39
2022/03/08 00:29:25;;;;;;;;;;;20.90;26.20;;;;;;469105;254;1074;-39
2022/03/08 00:31:26;;;;;;;;;;;20.90;26.20;;;;;;469107;254;1069;-39
2022/03/08 00:33:28;;;;;;;;;;;20.90;26.20;;;;;;469133;254;1062;-39
2022/03/08 00:35:29;;;;;;;;;;;20.90;26.10;;;;;;469017;254;1228;-39
2022/03/08 00:37:30;;;;;;;;;;;21.00;26.10;;;;;;468799;254;1062;-39
2022/03/08 00:39:32;;;;;;;;;;;21.00;26.20;;;;;;468699;254;1092;-39
2022/03/08 00:41:33;;;;;;;;;;;20.90;26.10;;;;;;468713;254;1313;-39
2022/03/08 00:43:34;;;;;;;;;;;20.90;26.10;;;;;;469035;254;2141;-39
2022/03/08 00:45:36;;;;;;;;;;;20.90;26.10;;;;;;469050;254;1347;-39
2022/03/08 00:47:38;;;;;;;;;;;20.90;26.10;;;;;;469179;254;1340;-39
2022/03/08 00:49:38;;;;;;;;;;;20.90;26.10;;;;;;469213;254;1428;-39
2022/03/08 00:51:40;;;;;;;;;;;20.90;26.10;;;;;;468712;254;1220;-39
2022/03/08 00:53:41;;;;;;;;;;;20.90;26.10;;;;;;468882;254;1114;-39
2022/03/08 00:55:42;;;;;;;;;;;20.90;26.10;;;;;;468794;254;1157;-39
2022/03/08 00:57:44;;;;;;;;;;;20.90;26.10;;;;;;468859;254;1430;-39
2022/03/08 00:59:45;;;;;;;;;;;20.90;26.10;;;;;;469238;254;1244;-39
2022/03/08 01:01:46;;;;;;;;;;;21.00;26.10;;;;;;468784;254;1296;-39
2022/03/08 01:03:47;;;;;;;;;;;21.00;26.10;;;;;;468809;254;2199;-39
2022/03/08 01:05:49;;;;;;;;;;;21.00;26.10;;;;;;469163;254;1227;-39
2022/03/08 01:07:50;;;;;;;;;;;21.00;26.10;;;;;;468755;254;1194;-39
2022/03/08 01:09:51;;;;;;;;;;;21.00;26.10;;;;;;469180;254;1098;-39
2022/03/08 01:11:53;;;;;;;;;;;21.00;26.00;;;;;;468820;254;1228;-39
2022/03/08 01:13:55;;;;;;;;;;;21.00;26.10;;;;;;469048;254;1111;-39
2022/03/08 01:15:56;;;;;;;;;;;21.00;26.10;;;;;;469230;254;1472;-39
2022/03/08 01:17:57;;;;;;;;;;;20.90;26.10;;;;;;468811;254;1162;-39
2022/03/08 01:19:58;;;;;;;;;;;20.90;26.10;;;;;;468786;254;1242;-39
2022/03/08 01:22:00;;;;;;;;;;;21.00;26.10;;;;;;468732;254;1372;-39
2022/03/08 01:24:01;;;;;;;;;;;20.90;26.10;;;;;;468739;254;2188;-39
2022/03/08 01:26:02;;;;;;;;;;;20.90;26.10;;;;;;468862;254;1108;-39
2022/03/08 01:28:04;;;;;;;;;;;20.90;26.10;;;;;;468852;254;1063;-39
2022/03/08 01:30:05;;;;;;;;;;;20.90;26.20;;;;;;469237;254;1042;-39
2022/03/08 01:32:06;;;;;;;;;;;20.90;26.20;;;;;;468858;254;1121;-39
2022/03/08 01:34:08;;;;;;;;;;;20.90;26.10;;;;;;468866;254;1118;-39
2022/03/08 01:36:09;;;;;;;;;;;20.90;26.10;;;;;;469160;254;1148;-39
2022/03/08 01:38:10;;;;;;;;;;;20.90;26.10;;;;;;469193;254;1082;-39
2022/03/08 01:40:15;;;;;;;;;;;20.90;26.10;;;;;;468921;254;1377;-39
2022/03/08 01:42:14;;;;;;;;;;;21.00;26.10;;;;;;469161;253;2270;-39
2022/03/08 01:44:15;;;;;;;;;;;21.00;26.10;;;;;;469175;254;2199;-39
2022/03/08 01:46:16;;;;;;;;;;;21.00;26.10;;;;;;469147;254;1083;-39
2022/03/08 01:48:18;;;;;;;;;;;21.00;26.10;;;;;;469188;254;1076;-39
2022/03/08 01:50:19;;;;;;;;;;;20.90;26.10;;;;;;468775;254;1069;-39
2022/03/08 01:52:21;;;;;;;;;;;20.90;26.10;;;;;;468798;254;1220;-39
2022/03/08 01:54:22;;;;;;;;;;;20.90;26.10;;;;;;469119;254;1064;-39
2022/03/08 01:56:23;;;;;;;;;;;21.00;26.10;;;;;;469234;254;1118;-39
2022/03/08 01:58:25;;;;;;;;;;;20.90;26.10;;;;;;469032;254;1099;-39
2022/03/08 02:00:26;;;;;;;;;;;21.00;26.10;;;;;;469115;254;1191;-39
2022/03/08 02:02:27;;;;;;;;;;;21.00;26.10;;;;;;469079;254;1086;-39
2022/03/08 02:04:29;;;;;;;;;;;20.90;26.10;;;;;;469141;254;2137;-39
2022/03/08 02:06:30;;;;;;;;;;;21.00;26.10;;;;;;468785;254;1158;-39
2022/03/08 02:08:31;;;;;;;;;;;21.00;26.10;;;;;;469014;254;1057;-39
2022/03/08 02:10:33;;;;;;;;;;;20.90;26.10;;;;;;469037;254;1154;-39
2022/03/08 02:12:34;;;;;;;;;;;21.00;26.10;;;;;;469202;254;1102;-39
2022/03/08 02:14:35;;;;;;;;;;;21.00;26.00;;;;;;469264;254;1111;-39
2022/03/08 02:16:36;;;;;;;;;;;21.00;26.00;;;;;;469206;254;1128;-39
2022/03/08 02:18:38;;;;;;;;;;;21.00;26.10;;;;;;468799;254;1076;-39
2022/03/08 02:20:39;;;;;;;;;;;20.90;26.10;;;;;;469069;254;1197;-39
2022/03/08 02:22:41;;;;;;;;;;;20.90;26.10;;;;;;468809;254;1264;-39
2022/03/08 02:24:42;;;;;;;;;;;21.00;26.20;;;;;;468899;254;2196;-39
2022/03/08 02:26:43;;;;;;;;;;;21.00;26.10;;;;;;468815;254;1045;-39
2022/03/08 02:28:44;;;;;;;;;;;21.00;26.10;;;;;;469196;254;1104;-39
2022/03/08 02:30:46;;;;;;;;;;;21.00;26.10;;;;;;468796;254;1102;-39
2022/03/08 02:32:47;;;;;;;;;;;21.00;26.10;;;;;;468856;254;1298;-39
2022/03/08 02:34:49;;;;;;;;;;;20.90;26.10;;;;;;469223;254;1046;-39
2022/03/08 02:36:50;;;;;;;;;;;20.90;26.20;;;;;;468861;254;1305;-39
2022/03/08 02:38:51;;;;;;;;;;;21.00;26.10;;;;;;469196;250;1384;-39
2022/03/08 02:40:53;;;;;;;;;;;21.00;26.20;;;;;;469233;254;1198;-39
2022/03/08 02:42:54;;;;;;;;;;;21.00;26.10;;;;;;468804;254;2312;-39
2022/03/08 02:44:55;;;;;;;;;;;21.00;26.10;;;;;;468896;254;2133;-39
2022/03/08 02:46:56;;;;;;;;;;;21.00;26.10;;;;;;468791;254;1232;-39
2022/03/08 02:48:58;;;;;;;;;;;21.00;26.10;;;;;;469258;254;1398;-39
2022/03/08 02:50:59;;;;;;;;;;;20.90;26.10;;;;;;469087;250;1183;-39
2022/03/08 02:53:01;;;;;;;;;;;21.00;26.10;;;;;;468964;254;1223;-39
2022/03/08 02:55:02;;;;;;;;;;;21.00;26.10;;;;;;468709;254;2445;-39
2022/03/08 02:57:03;;;;;;;;;;;21.00;26.10;;;;;;468782;254;1375;-39
2022/03/08 02:59:04;;;;;;;;;;;21.00;26.10;;;;;;469231;254;1070;-39
2022/03/08 03:01:06;;;;;;;;;;;21.00;26.10;;;;;;469154;254;1060;-39
2022/03/08 03:03:07;;;;;;;;;;;21.00;26.20;;;;;;469154;254;1064;-39
2022/03/08 03:05:09;;;;;;;;;;;21.00;26.20;;;;;;468772;254;2220;-39
2022/03/08 03:07:10;;;;;;;;;;;20.90;26.10;;;;;;468910;254;1310;-39
2022/03/08 03:09:11;;;;;;;;;;;20.90;26.20;;;;;;468757;254;1092;-39
2022/03/08 03:11:13;;;;;;;;;;;20.90;26.20;;;;;;468805;254;1041;-39
2022/03/08 03:13:14;;;;;;;;;;;21.00;26.20;;;;;;469215;254;1092;-39
2022/03/08 03:15:15;;;;;;;;;;;21.00;26.20;;;;;;468828;254;1079;-39
2022/03/08 03:17:17;;;;;;;;;;;20.90;26.10;;;;;;469117;254;1093;-39
2022/03/08 03:19:18;;;;;;;;;;;20.90;26.20;;;;;;469213;254;1070;-39
2022/03/08 03:21:19;;;;;;;;;;;20.90;26.20;;;;;;468798;254;1187;-39
2022/03/08 03:23:21;;;;;;;;;;;20.90;26.20;;;;;;468819;254;1250;-39
2022/03/08 03:25:22;;;;;;;;;;;20.90;26.20;;;;;;469239;254;2129;-39
2022/03/08 03:27:23;;;;;;;;;;;20.90;26.20;;;;;;469255;254;1047;-39
2022/03/08 03:29:25;;;;;;;;;;;20.90;26.20;;;;;;469247;254;1081;-39
2022/03/08 03:31:26;;;;;;;;;;;21.00;26.20;;;;;;468794;254;1087;-39
2022/03/08 03:33:27;;;;;;;;;;;21.00;26.20;;;;;;469124;254;1106;-39
2022/03/08 03:35:29;;;;;;;;;;;21.00;26.20;;;;;;469037;254;1107;-39
2022/03/08 03:37:30;;;;;;;;;;;21.00;26.20;;;;;;468762;254;1372;-39
2022/03/08 03:39:31;;;;;;;;;;;21.00;26.20;;;;;;469215;254;1071;-39
2022/03/08 03:41:33;;;;;;;;;;;21.00;26.20;;;;;;468933;254;1222;-39
2022/03/08 03:43:34;;;;;;;;;;;20.90;26.20;;;;;;469217;254;1042;-39
2022/03/08 03:45:36;;;;;;;;;;;21.00;26.20;;;;;;468797;254;2195;-39
2022/03/08 03:47:37;;;;;;;;;;;20.90;26.20;;;;;;469129;254;1161;-39
2022/03/08 03:49:39;;;;;;;;;;;20.90;26.20;;;;;;469206;254;1180;-39
2022/03/08 03:51:40;;;;;;;;;;;21.00;26.20;;;;;;468981;250;1228;-39
2022/03/08 03:53:41;;;;;;;;;;;21.00;26.20;;;;;;468958;254;1259;-39
2022/03/08 03:55:43;;;;;;;;;;;21.00;26.20;;;;;;469221;254;1066;-39
2022/03/08 03:57:44;;;;;;;;;;;21.00;26.20;;;;;;468803;254;1218;-39
2022/03/08 03:59:45;;;;;;;;;;;20.90;26.20;;;;;;468835;254;1100;-39
2022/03/08 04:01:47;;;;;;;;;;;20.90;26.20;;;;;;468834;254;1388;-39
2022/03/08 04:03:48;;;;;;;;;;;21.00;26.20;;;;;;468823;254;1197;-39
2022/03/08 04:05:49;;;;;;;;;;;21.00;26.20;;;;;;468814;254;2133;-39
2022/03/08 04:07:51;;;;;;;;;;;21.00;26.20;;;;;;469145;254;1194;-39
2022/03/08 04:09:52;;;;;;;;;;;21.00;26.20;;;;;;469215;254;1095;-39
2022/03/08 04:11:53;;;;;;;;;;;20.90;26.20;;;;;;468758;251;1194;-39
2022/03/08 04:13:55;;;;;;;;;;;20.90;26.20;;;;;;468748;254;1111;-39
2022/03/08 04:15:56;;;;;;;;;;;20.90;26.20;;;;;;469228;254;1074;-39
2022/03/08 04:17:57;;;;;;;;;;;21.00;26.20;;;;;;469219;254;1357;-39
2022/03/08 04:19:59;;;;;;;;;;;21.00;26.20;;;;;;469167;254;1091;-39
2022/03/08 04:22:00;;;;;;;;;;;21.00;26.20;;;;;;469220;254;989;-39
2022/03/08 04:24:02;;;;;;;;;;;21.00;26.20;;;;;;468963;254;1224;-39
2022/03/08 04:26:03;;;;;;;;;;;21.00;26.20;;;;;;469193;254;2117;-39
2022/03/08 04:28:04;;;;;;;;;;;20.90;26.20;;;;;;469228;254;1076;-39
2022/03/08 04:30:05;;;;;;;;;;;21.00;26.20;;;;;;468828;254;1162;-39
2022/03/08 04:32:07;;;;;;;;;;;21.00;26.20;;;;;;468766;254;1359;-39
2022/03/08 04:34:08;;;;;;;;;;;21.00;26.20;;;;;;468777;254;1128;-39
2022/03/08 04:36:10;;;;;;;;;;;20.90;26.20;;;;;;468736;254;1114;-39
2022/03/08 04:38:11;;;;;;;;;;;20.90;26.20;;;;;;468817;254;1231;-39
2022/03/08 04:40:12;;;;;;;;;;;20.90;26.20;;;;;;469219;254;1047;-39
2022/03/08 04:42:14;;;;;;;;;;;21.00;26.20;;;;;;468988;254;1220;-39
2022/03/08 04:44:15;;;;;;;;;;;21.00;26.20;;;;;;468849;254;1076;-39
2022/03/08 04:46:16;;;;;;;;;;;20.90;26.20;;;;;;469186;254;2137;-39
2022/03/08 04:48:18;;;;;;;;;;;20.90;26.20;;;;;;469220;254;1082;-39
2022/03/08 04:50:19;;;;;;;;;;;20.90;26.20;;;;;;468779;254;1112;-39
2022/03/08 04:52:20;;;;;;;;;;;20.90;26.20;;;;;;469175;254;1067;-39
2022/03/08 04:54:22;;;;;;;;;;;21.00;26.20;;;;;;468908;254;1183;-39
2022/03/08 04:56:23;;;;;;;;;;;20.90;26.20;;;;;;468999;254;1096;-39
2022/03/08 04:58:24;;;;;;;;;;;20.80;26.20;;;;;;468951;254;1076;-39
2022/03/08 05:00:26;;;;;;;;;;;20.90;26.30;;;;;;469203;254;1103;-39
2022/03/08 05:02:27;;;;;;;;;;;21.00;26.30;;;;;;469077;254;1052;-39
2022/03/08 05:04:29;;;;;;;;;;;21.00;26.20;;;;;;468794;254;1193;-39
2022/03/08 05:06:30;;;;;;;;;;;21.00;26.20;;;;;;468866;254;2137;-39
2022/03/08 05:08:31;;;;;;;;;;;21.00;26.20;;;;;;468808;254;1945;-39
2022/03/08 05:10:33;;;;;;;;;;;21.00;26.20;;;;;;468788;254;1112;-39
2022/03/08 05:12:34;;;;;;;;;;;20.90;26.20;;;;;;468775;254;1130;-39
2022/03/08 05:14:35;;;;;;;;;;;21.00;26.20;;;;;;468950;254;1099;-39
2022/03/08 05:16:37;;;;;;;;;;;21.00;26.20;;;;;;468805;254;1230;-39
2022/03/08 05:18:38;;;;;;;;;;;21.00;26.20;;;;;;468724;254;1101;-39
2022/03/08 05:20:39;;;;;;;;;;;21.00;26.20;;;;;;469046;254;1063;-39
2022/03/08 05:22:41;;;;;;;;;;;21.00;26.20;;;;;;468948;254;1202;-39
2022/03/08 05:24:42;;;;;;;;;;;21.00;26.20;;;;;;468950;254;1199;-39
2022/03/08 05:26:43;;;;;;;;;;;21.00;26.20;;;;;;469133;254;1124;-39
2022/03/08 05:28:46;;;;;;;;;;;21.00;26.20;;;;;;468927;254;1077;-39
2022/03/08 05:30:46;;;;;;;;;;;21.00;26.20;;;;;;468813;253;1888;-39
2022/03/08 05:32:47;;;;;;;;;;;21.00;26.20;;;;;;468780;254;1089;-39
2022/03/08 05:34:48;;;;;;;;;;;21.00;26.20;;;;;;468719;254;1093;-39
2022/03/08 05:36:50;;;;;;;;;;;21.00;26.20;;;;;;468721;254;1085;-39
2022/03/08 05:38:51;;;;;;;;;;;21.00;26.20;;;;;;468891;254;1319;-39
2022/03/08 05:40:52;;;;;;;;;;;21.00;26.20;;;;;;468903;254;1234;-39
2022/03/08 05:42:54;;;;;;;;;;;20.90;26.20;;;;;;468680;254;1137;-39
2022/03/08 05:44:55;;;;;;;;;;;20.90;26.20;;;;;;469061;254;2126;-39
2022/03/08 05:46:56;;;;;;;;;;;21.00;26.20;;;;;;468800;254;1050;-39
2022/03/08 05:48:58;;;;;;;;;;;21.00;26.20;;;;;;468669;254;1119;-39
2022/03/08 05:50:59;;;;;;;;;;;21.00;26.20;;;;;;468718;254;1101;-39
2022/03/08 05:53:00;;;;;;;;;;;21.00;26.20;;;;;;468710;254;1131;-39
2022/03/08 05:55:02;;;;;;;;;;;20.90;26.20;;;;;;468777;254;1201;-39
2022/03/08 05:57:03;;;;;;;;;;;20.90;26.20;;;;;;468748;254;1101;-39
2022/03/08 05:59:04;;;;;;;;;;;20.90;26.30;;;;;;469061;254;1208;-39
2022/03/08 06:01:06;;;;;;;;;;;20.90;26.20;;;;;;468809;251;1604;-39
2022/03/08 06:03:07;;;;;;;;;;;20.90;26.20;;;;;;468676;254;1099;-39
2022/03/08 06:05:08;;;;;;;;;;;21.00;26.20;;;;;;468564;254;2125;-39
2022/03/08 06:07:10;;;;;;;;;;;21.00;26.20;;;;;;468768;254;1391;-39
2022/03/08 06:09:11;;;;;;;;;;;21.00;26.20;;;;;;468650;254;1175;-39
2022/03/08 06:11:12;;;;;;;;;;;21.00;26.20;;;;;;468563;254;1109;-39
2022/03/08 06:13:14;;;;;;;;;;;21.00;26.30;;;;;;468526;254;1273;-39
2022/03/08 06:15:15;;;;;;;;;;;20.90;26.20;;;;;;468556;254;1101;-39
2022/03/08 06:17:16;;;;;;;;;;;20.90;26.20;;;;;;468496;254;1374;-39
2022/03/08 06:19:17;;;;;;;;;;;21.00;26.20;;;;;;468538;254;1061;-39
2022/03/08 06:21:20;;;;;;;;;;;21.00;26.20;;;;;;468565;254;1174;-39
2022/03/08 06:23:20;;;;;;;;;;;21.00;26.20;;;;;;468543;254;2104;-39
2022/03/08 06:25:21;;;;;;;;;;;20.90;26.20;;;;;;468436;254;2204;-39
2022/03/08 06:27:23;;;;;;;;;;;20.90;26.20;;;;;;468337;254;1357;-39
2022/03/08 06:29:24;;;;;;;;;;;20.90;26.20;;;;;;468510;254;1054;-39
2022/03/08 06:31:25;;;;;;;;;;;21.00;26.20;;;;;;468397;250;1167;-39
2022/03/08 06:33:27;;;;;;;;;;;20.90;26.10;;;;;;468658;254;1238;-39
2022/03/08 06:35:28;;;;;;;;;;;21.00;26.20;;;;;;468310;254;1176;-39
2022/03/08 06:37:29;;;;;;;;;;;21.00;26.20;;;;;;468338;254;1065;-39
2022/03/08 06:39:31;;;;;;;;;;;20.90;26.10;;;;;;468687;254;1336;-39
2022/03/08 06:41:32;;;;;;;;;;;21.00;26.20;;;;;;468463;254;1407;-39
2022/03/08 06:43:34;;;;;;;;;;;21.00;26.20;;;;;;468725;254;1189;-39
2022/03/08 06:45:35;;;;;;;;;;;21.00;26.20;;;;;;468398;254;2249;-39
2022/03/08 06:47:38;;;;;;;;;;;21.00;26.20;;;;;;468419;254;1223;-39
2022/03/08 06:49:38;;;;;;;;;;;20.90;26.10;;;;;;468568;254;2295;-39
2022/03/08 06:51:39;;;;;;;;;;;21.00;26.20;;;;;;468480;254;1218;-39
2022/03/08 06:53:40;;;;;;;;;;;21.00;26.20;;;;;;468515;254;1165;-39
2022/03/08 06:55:42;;;;;;;;;;;21.00;26.20;;;;;;468470;254;1143;-39
2022/03/08 06:57:43;;;;;;;;;;;21.00;26.20;;;;;;468517;254;1168;-39
2022/03/08 06:59:44;;;;;;;;;;;20.90;26.20;;;;;;468334;254;1234;-39
2022/03/08 07:01:46;;;;;;;;;;;20.90;26.20;;;;;;468258;254;1097;-39
2022/03/08 07:03:47;;;;;;;;;;;20.90;26.30;;;;;;468427;254;1122;-39
2022/03/08 07:05:49;;;;;;;;;;;21.00;26.20;;;;;;468525;254;2152;-39
2022/03/08 07:07:50;;;;;;;;;;;21.00;26.20;;;;;;468703;254;1107;-39
2022/03/08 07:09:51;;;;;;;;;;;20.90;26.20;;;;;;468473;254;1288;-39
2022/03/08 07:11:52;;;;;;;;;;;20.90;26.20;;;;;;468461;254;1119;-39
2022/03/08 07:13:54;;;;;;;;;;;21.00;26.20;;;;;;468409;254;1119;-39
2022/03/08 07:15:55;;;;;;;;;;;20.90;26.20;;;;;;468374;254;1102;-39
2022/03/08 07:17:56;;;;;;;;;;;20.90;26.20;;;;;;468435;254;1111;-39
2022/03/08 07:19:58;;;;;;;;;;;20.90;26.20;;;;;;468344;254;1096;-39
2022/03/08 07:21:59;;;;;;;;;;;20.90;26.20;;;;;;468434;254;1393;-39
2022/03/08 07:24:01;;;;;;;;;;;20.90;26.20;;;;;;468382;254;1090;-39
2022/03/08 07:26:02;;;;;;;;;;;20.90;26.20;;;;;;468263;254;2192;-39
2022/03/08 07:28:03;;;;;;;;;;;20.90;26.20;;;;;;468318;254;1221;-39
2022/03/08 07:30:05;;;;;;;;;;;21.00;26.20;;;;;;468235;254;1067;-39
2022/03/08 07:32:06;;;;;;;;;;;21.00;26.10;;;;;;467966;254;1281;-39
2022/03/08 07:34:07;;;;;;;;;;;20.90;26.10;;;;;;468190;254;1114;-39
2022/03/08 07:36:09;;;;;;;;;;;20.90;26.10;;;;;;468288;254;1077;-39
2022/03/08 07:38:10;;;;;;;;;;;20.90;26.10;;;;;;468319;254;1098;-39
2022/03/08 07:40:11;;;;;;;;;;;20.90;26.00;;;;;;468381;254;1272;-39
2022/03/08 07:42:13;;;;;;;;;;;21.00;26.00;;;;;;468175;254;1233;-39
2022/03/08 07:44:14;;;;;;;;;;;20.90;26.00;;;;;;468250;254;1109;-39
2022/03/08 07:46:16;;;;;;;;;;;21.00;26.10;;;;;;468239;254;2204;-39
2022/03/08 07:48:18;;;;;;;;;;;20.90;26.00;;;;;;468163;254;1179;-39
2022/03/08 07:50:19;;;;;;;;;;;20.90;26.00;;;;;;468133;254;2048;-39
2022/03/08 07:52:20;;;;;;;;;;;21.00;26.00;;;;;;468093;254;1380;-39
2022/03/08 07:54:21;;;;;;;;;;;21.00;26.00;;;;;;468177;254;1229;-39
2022/03/08 07:56:23;;;;;;;;;;;21.00;26.00;;;;;;468146;254;1222;-39
2022/03/08 07:58:24;;;;;;;;;;;21.00;26.00;;;;;;468114;254;1117;-39
2022/03/08 08:00:25;;;;;;;;;;;21.00;26.00;;;;;;468059;254;1316;-39
2022/03/08 08:02:27;;;;;;;;;;;21.00;26.00;;;;;;468020;254;1224;-39
2022/03/08 08:04:29;;;;;;;;;;;20.90;26.00;;;;;;467975;254;1200;-39
2022/03/08 08:06:29;;;;;;;;;;;21.00;26.00;;;;;;467880;254;2141;-39
2022/03/08 08:08:30;;;;;;;;;;;21.00;25.90;;;;;;467998;254;1148;-39
2022/03/08 08:10:32;;;;;;;;;;;21.00;25.90;;;;;;468039;254;1114;-39
2022/03/08 08:12:34;;;;;;;;;;;21.00;25.90;;;;;;468074;254;1170;-39
2022/03/08 08:14:34;;;;;;;;;;;21.00;25.90;;;;;;468025;254;2429;-39
2022/03/08 08:16:36;;;;;;;;;;;21.00;25.90;;;;;;468081;254;1269;-39
2022/03/08 08:18:37;;;;;;;;;;;21.00;25.90;;;;;;468126;254;1081;-39
2022/03/08 08:20:38;;;;;;;;;;;21.00;25.80;;;;;;468064;254;1080;-39
2022/03/08 08:22:40;;;;;;;;;;;21.00;25.90;;;;;;467951;254;1120;-39
2022/03/08 08:24:41;;;;;;;;;;;20.90;25.80;;;;;;468196;254;1142;-39
2022/03/08 08:26:42;;;;;;;;;;;21.00;25.90;;;;;;467976;254;2211;-39
2022/03/08 08:28:44;;;;;;;;;;;21.00;25.90;;;;;;467919;254;1144;-39
2022/03/08 08:30:45;;;;;;;;;;;21.00;25.90;;;;;;467922;254;1138;-39
2022/03/08 08:32:46;;;;;;;;;;;21.00;25.80;;;;;;467867;254;1104;-39
2022/03/08 08:34:48;;;;;;;;;;;20.90;25.80;;;;;;467728;254;1356;-39
2022/03/08 08:36:49;;;;;;;;;;;20.90;25.90;;;;;;467748;250;1412;-39
2022/03/08 08:38:50;;;;;;;;;;;21.00;25.80;;;;;;467925;254;1116;-39
2022/03/08 08:40:52;;;;;;;;;;;21.00;25.90;;;;;;467927;254;1174;-39
2022/03/08 08:42:53;;;;;;;;;;;20.90;25.80;;;;;;467987;254;1212;-39
2022/03/08 08:44:54;;;;;;;;;;;21.00;25.80;;;;;;468214;254;1078;-39
2022/03/08 08:46:56;;;;;;;;;;;21.00;25.80;;;;;;467974;254;2129;-39
2022/03/08 08:48:57;;;;;;;;;;;21.00;25.80;;;;;;467992;254;1175;-39
2022/03/08 08:50:58;;;;;;;;;;;21.00;25.80;;;;;;467975;254;1208;-39
2022/03/08 08:53:00;;;;;;;;;;;20.90;25.80;;;;;;468043;254;1070;-39
2022/03/08 08:55:01;;;;;;;;;;;21.00;25.80;;;;;;468097;254;1085;-39
2022/03/08 08:57:02;;;;;;;;;;;21.00;25.80;;;;;;467945;254;1258;-39
2022/03/08 08:59:04;;;;;;;;;;;21.00;25.70;;;;;;468233;254;1165;-39
2022/03/08 09:01:05;;;;;;;;;;;21.00;25.70;;;;;;468002;254;1309;-39
2022/03/08 09:03:09;;;;;;;;;;;21.00;25.70;;;;;;468002;254;1149;-39
2022/03/08 09:05:08;;;;;;;;;;;21.00;25.70;;;;;;467723;254;2376;-39
2022/03/08 09:07:09;;;;;;;;;;;21.00;25.70;;;;;;467821;254;2200;-39
2022/03/08 09:09:11;;;;;;;;;;;21.00;25.70;;;;;;467847;254;1126;-39
2022/03/08 09:11:12;;;;;;;;;;;21.00;25.70;;;;;;468241;253;1568;-39
2022/03/08 09:13:13;;;;;;;;;;;21.00;25.60;;;;;;468381;254;971;-39
2022/03/08 09:15:14;;;;;;;;;;;21.00;25.70;;;;;;467887;254;1070;-39
2022/03/08 09:17:16;;;;;;;;;;;21.00;25.70;;;;;;467798;254;1102;-39
2022/03/08 09:19:17;;;;;;;;;;;21.00;25.60;;;;;;468095;254;1113;-39
2022/03/08 09:21:18;;;;;;;;;;;21.00;25.60;;;;;;467984;254;1237;-39
2022/03/08 09:23:20;;;;;;;;;;;21.00;25.60;;;;;;468024;254;1090;-39
2022/03/08 09:25:22;;;;;;;;;;;21.00;25.60;;;;;;467951;254;1211;-39
2022/03/08 09:27:22;;;;;;;;;;;21.10;25.60;;;;;;467868;253;2188;-39
2022/03/08 09:29:24;;;;;;;;;;;21.00;25.60;;;;;;467986;254;1182;-39
2022/03/08 09:31:25;;;;;;;;;;;21.00;25.70;;;;;;467989;254;1282;-39
2022/03/08 09:33:26;;;;;;;;;;;21.00;25.70;;;;;;467985;254;1085;-39
2022/03/08 09:35:28;;;;;;;;;;;21.00;25.60;;;;;;467815;254;1079;-39
2022/03/08 09:37:29;;;;;;;;;;;21.00;25.60;;;;;;467987;254;1109;-39
2022/03/08 09:39:30;;;;;;;;;;;21.00;25.60;;;;;;468066;254;1084;-39
2022/03/08 09:41:32;;;;;;;;;;;21.00;25.60;;;;;;467921;254;1260;-39
2022/03/08 09:43:33;;;;;;;;;;;21.00;25.60;;;;;;468045;254;1229;-39
2022/03/08 09:45:35;;;;;;;;;;;21.00;25.60;;;;;;468231;254;1119;-39
2022/03/08 09:47:36;;;;;;;;;;;21.00;25.60;;;;;;468072;254;2208;-39
2022/03/08 09:49:37;;;;;;;;;;;21.00;25.60;;;;;;467883;254;1082;-39
2022/03/08 09:51:38;;;;;;;;;;;21.00;25.60;;;;;;467809;254;1172;-39
2022/03/08 09:53:40;;;;;;;;;;;21.00;25.60;;;;;;467945;254;1155;-39
2022/03/08 09:55:41;;;;;;;;;;;21.00;25.50;;;;;;467985;254;1074;-39
2022/03/08 09:57:42;;;;;;;;;;;21.00;25.60;;;;;;468059;254;1245;-39
2022/03/08 09:59:44;;;;;;;;;;;21.00;25.50;;;;;;467978;254;1153;-39
2022/03/08 10:01:45;;;;;;;;;;;21.00;25.50;;;;;;467820;254;1392;-39
2022/03/08 10:03:46;;;;;;;;;;;21.00;25.50;;;;;;467929;254;1157;-39
2022/03/08 10:05:48;;;;;;;;;;;21.00;25.50;;;;;;467833;254;1112;-39
2022/03/08 10:07:49;;;;;;;;;;;21.00;25.60;;;;;;467858;254;2199;-39
2022/03/08 10:09:50;;;;;;;;;;;21.00;25.50;;;;;;468195;254;1090;-39
2022/03/08 10:11:52;;;;;;;;;;;21.00;25.50;;;;;;468153;254;1346;-39
2022/03/08 10:13:53;;;;;;;;;;;21.00;25.50;;;;;;468076;254;1157;-39
2022/03/08 10:15:54;;;;;;;;;;;21.00;25.50;;;;;;467913;254;1116;-39
2022/03/08 10:17:56;;;;;;;;;;;21.00;25.40;;;;;;467926;254;1111;-39
2022/03/08 10:19:57;;;;;;;;;;;21.00;25.40;;;;;;468086;254;1134;-39
2022/03/08 10:21:58;;;;;;;;;;;21.00;25.50;;;;;;468078;254;1255;-39
2022/03/08 10:24:00;;;;;;;;;;;21.00;25.40;;;;;;468036;254;1102;-39
2022/03/08 10:26:01;;;;;;;;;;;21.00;25.50;;;;;;468137;254;1081;-39
2022/03/08 10:28:02;;;;;;;;;;;21.00;25.40;;;;;;467989;254;2200;-39
2022/03/08 10:30:04;;;;;;;;;;;21.00;25.50;;;;;;468102;254;1093;-39
2022/03/08 10:32:05;;;;;;;;;;;21.00;25.40;;;;;;468093;254;1078;-39
2022/03/08 10:34:07;;;;;;;;;;;21.00;25.40;;;;;;468095;254;1161;-39
2022/03/08 10:36:08;;;;;;;;;;;20.90;25.40;;;;;;468066;254;1075;-39
2022/03/08 10:38:11;;;;;;;;;;;21.00;25.40;;;;;;468129;254;1094;-39
2022/03/08 10:40:12;;;;;;;;;;;21.00;25.40;;;;;;468088;253;2251;-39
2022/03/08 10:42:12;;;;;;;;;;;21.00;25.40;;;;;;467999;253;1816;-39
2022/03/08 10:44:13;;;;;;;;;;;21.00;25.40;;;;;;467980;254;1112;-39
2022/03/08 10:46:15;;;;;;;;;;;21.00;25.40;;;;;;467754;254;1454;-39
2022/03/08 10:48:18;;;;;;;;;;;21.00;25.30;;;;;;467896;254;2180;-39
2022/03/08 10:50:17;;;;;;;;;;;21.00;25.40;;;;;;467910;254;2224;-39
2022/03/08 10:52:19;;;;;;;;;;;20.90;25.30;;;;;;467955;254;1082;-39
2022/03/08 10:54:20;;;;;;;;;;;21.00;25.30;;;;;;468171;254;1094;-39
2022/03/08 10:56:21;;;;;;;;;;;21.00;25.30;;;;;;468061;254;1071;-39
2022/03/08 10:58:23;;;;;;;;;;;21.00;25.30;;;;;;468139;254;1297;-39
2022/03/08 11:00:24;;;;;;;;;;;21.00;25.30;;;;;;468032;254;1150;-39
2022/03/08 11:02:25;;;;;;;;;;;21.00;25.30;;;;;;468029;254;1101;-39
2022/03/08 11:04:27;;;;;;;;;;;21.00;25.30;;;;;;468071;254;1145;-39
2022/03/08 11:06:28;;;;;;;;;;;21.00;25.30;;;;;;468152;254;1462;-39
2022/03/08 11:08:29;;;;;;;;;;;21.00;25.30;;;;;;468209;254;2196;-39
2022/03/08 11:10:31;;;;;;;;;;;21.00;25.30;;;;;;468021;254;1121;-39
2022/03/08 11:12:32;;;;;;;;;;;21.00;25.30;;;;;;468161;254;1153;-39
2022/03/08 11:14:33;;;;;;;;;;;21.00;25.20;;;;;;468589;254;815;-39
2022/03/08 11:16:35;;;;;;;;;;;21.00;25.30;;;;;;468074;254;1555;-39
2022/03/08 11:18:37;;;;;;;;;;;21.00;25.20;;;;;;468018;254;1092;-39
2022/03/08 11:20:38;;;;;;;;;;;21.00;25.20;;;;;;468007;254;1101;-39
2022/03/08 11:22:39;;;;;;;;;;;21.00;25.20;;;;;;468058;254;1491;-39
2022/03/08 11:24:41;;;;;;;;;;;21.00;25.20;;;;;;468072;254;1151;-39
2022/03/08 11:26:42;;;;;;;;;;;21.00;25.20;;;;;;467968;250;1534;-39
2022/03/08 11:28:43;;;;;;;;;;;21.00;25.20;;;;;;467854;253;2200;-39
2022/03/08 11:30:44;;;;;;;;;;;21.00;25.20;;;;;;467802;254;1096;-39
2022/03/08 11:32:46;;;;;;;;;;;21.00;25.20;;;;;;467789;254;1212;-39
2022/03/08 11:34:47;;;;;;;;;;;21.00;25.20;;;;;;467971;254;1099;-39
2022/03/08 11:36:48;;;;;;;;;;;21.00;25.20;;;;;;468004;254;1223;-39
2022/03/08 11:38:50;;;;;;;;;;;21.00;25.10;;;;;;468022;254;1163;-39
2022/03/08 11:40:53;;;;;;;;;;;21.00;25.10;;;;;;468033;254;1385;-39
2022/03/08 11:42:53;;;;;;;;;;;21.00;25.10;;;;;;468076;253;1187;-39
2022/03/08 11:44:54;;;;;;;;;;;21.00;25.10;;;;;;468025;254;1137;-39
2022/03/08 11:46:55;;;;;;;;;;;21.00;25.10;;;;;;467841;254;1243;-39
2022/03/08 11:48:57;;;;;;;;;;;21.00;25.10;;;;;;468019;254;2268;-39
2022/03/08 11:50:58;;;;;;;;;;;21.00;25.10;;;;;;467918;254;1509;-39
2022/03/08 11:52:59;;;;;;;;;;;21.00;25.10;;;;;;467987;254;1132;-39
2022/03/08 11:55:03;;;;;;;;;;;21.00;25.10;;;;;;467945;254;1112;-39
2022/03/08 11:57:03;;;;;;;;;;;21.00;25.10;;;;;;467892;253;2570;-39